createdAt,value
2022-10-21T00:04:04.884Z,20.97
2022-10-21T00:06:30.422Z,20.97
2022-10-21T00:08:56.021Z,20.98
2022-10-21T00:11:21.644Z,20.98
2022-10-21T00:13:47.187Z,20.97
2022-10-21T00:16:14.079Z,20.96
2022-10-21T00:18:40.453Z,20.97
2022-10-21T00:21:06.739Z,20.97
2022-10-21T00:23:32.285Z,20.97
2022-10-21T00:25:57.826Z,20.97
2022-10-21T00:28:23.379Z,20.97
2022-10-21T00:30:48.943Z,20.97
2022-10-21T00:33:14.497Z,20.97
2022-10-21T00:35:40.070Z,20.97
2022-10-21T00:38:05.626Z,20.96
2022-10-21T00:40:31.323Z,20.96
2022-10-21T00:42:56.864Z,20.96
2022-10-21T00:45:23.536Z,20.97
2022-10-21T00:47:51.129Z,20.97
2022-10-21T00:50:18.714Z,20.96
2022-10-21T00:52:44.252Z,20.95
2022-10-21T00:55:09.812Z,20.96
2022-10-21T00:57:35.520Z,20.96
2022-10-21T01:00:01.359Z,20.95
2022-10-21T01:02:27.224Z,20.95
2022-10-21T01:04:53.277Z,20.95
2022-10-21T01:07:18.824Z,20.95
2022-10-21T01:09:44.375Z,20.94
2022-10-21T01:12:12.923Z,20.95
2022-10-21T01:14:42.733Z,20.96
2022-10-21T01:17:26.332Z,20.95
2022-10-21T01:20:09.314Z,20.95
2022-10-21T01:22:48.856Z,20.95
2022-10-21T01:25:34.272Z,20.95
2022-10-21T01:28:19.696Z,20.95
2022-10-21T01:31:00.619Z,20.95
2022-10-21T01:33:46.047Z,20.95
2022-10-21T01:36:22.534Z,20.95
2022-10-21T01:39:07.972Z,20.94
2022-10-21T01:41:36.519Z,20.95
2022-10-21T01:44:05.555Z,20.94
2022-10-21T01:46:37.864Z,20.94
2022-10-21T01:49:05.523Z,20.95
2022-10-21T01:51:31.062Z,20.94
2022-10-21T01:53:58.302Z,20.94
2022-10-21T01:56:23.847Z,20.94
2022-10-21T01:58:49.395Z,20.94
2022-10-21T02:01:15.200Z,20.93
2022-10-21T02:03:41.394Z,20.94
2022-10-21T02:06:06.941Z,20.94
2022-10-21T02:08:32.591Z,20.94
2022-10-21T02:10:58.782Z,20.93
2022-10-21T02:13:25.415Z,20.94
2022-10-21T02:15:52.269Z,20.93
2022-10-21T02:18:20.346Z,20.93
2022-10-21T02:20:45.895Z,20.94
2022-10-21T02:23:12.390Z,20.93
2022-10-21T02:25:38.047Z,20.93
2022-10-21T02:28:03.673Z,20.92
2022-10-21T02:30:31.702Z,20.93
2022-10-21T02:33:01.479Z,20.92
2022-10-21T02:35:44.946Z,20.93
2022-10-21T02:38:14.114Z,20.93
2022-10-21T02:40:41.338Z,20.93
2022-10-21T02:43:11.493Z,20.93
2022-10-21T02:45:37.400Z,20.92
2022-10-21T02:48:03.321Z,20.92
2022-10-21T02:50:28.864Z,20.91
2022-10-21T02:52:54.427Z,20.93
2022-10-21T02:55:19.971Z,20.92
2022-10-21T02:57:45.520Z,20.91
2022-10-21T03:00:11.402Z,20.92
2022-10-21T03:02:36.947Z,20.91
2022-10-21T03:05:02.594Z,20.92
2022-10-21T03:07:28.142Z,20.92
2022-10-21T03:09:53.689Z,20.92
2022-10-21T03:12:19.226Z,20.92
2022-10-21T03:14:44.775Z,20.92
2022-10-21T03:17:10.324Z,20.92
2022-10-21T03:19:35.883Z,20.91
2022-10-21T03:22:01.419Z,20.92
2022-10-21T03:24:28.837Z,20.91
2022-10-21T03:26:54.811Z,20.92
2022-10-21T03:29:20.364Z,20.91
2022-10-21T03:31:45.914Z,20.91
2022-10-21T03:34:11.468Z,20.91
2022-10-21T03:36:37.018Z,20.91
2022-10-21T03:39:02.574Z,20.91
2022-10-21T03:41:28.119Z,20.90
2022-10-21T03:43:53.674Z,20.91
2022-10-21T03:46:19.228Z,20.91
2022-10-21T03:48:44.796Z,20.91
2022-10-21T03:51:10.344Z,20.91
2022-10-21T03:53:43.325Z,20.92
2022-10-21T03:56:09.230Z,20.90
2022-10-21T03:58:34.971Z,20.91
2022-10-21T04:01:00.565Z,20.90
2022-10-21T04:03:26.118Z,20.91
2022-10-21T04:05:51.684Z,20.90
2022-10-21T04:08:17.237Z,20.89
2022-10-21T04:10:43.578Z,20.90
2022-10-21T04:13:09.157Z,20.90
2022-10-21T04:15:34.701Z,20.90
2022-10-21T04:18:00.252Z,20.90
2022-10-21T04:20:25.796Z,20.90
2022-10-21T04:22:51.347Z,20.90
2022-10-21T04:25:16.898Z,20.90
2022-10-21T04:27:42.451Z,20.91
2022-10-21T04:30:08.215Z,20.90
2022-10-21T04:32:33.774Z,20.90
2022-10-21T04:34:59.330Z,20.90
2022-10-21T04:37:24.883Z,20.90
2022-10-21T04:39:50.434Z,20.90
2022-10-21T04:42:16.024Z,20.90
2022-10-21T04:44:41.603Z,20.89
2022-10-21T04:47:07.144Z,20.90
2022-10-21T04:49:32.695Z,20.89
2022-10-21T04:51:58.232Z,20.90
2022-10-21T04:54:23.777Z,20.90
2022-10-21T04:56:49.349Z,20.89
2022-10-21T04:59:14.898Z,20.89
2022-10-21T05:01:40.435Z,20.89
2022-10-21T05:04:05.977Z,20.88
2022-10-21T05:06:31.519Z,20.88
2022-10-21T05:08:57.152Z,20.88
2022-10-21T05:11:22.741Z,20.87
2022-10-21T05:13:48.294Z,20.86
2022-10-21T05:16:13.833Z,20.88
2022-10-21T05:18:39.391Z,20.89
2022-10-21T05:21:04.935Z,20.89
2022-10-21T05:23:30.503Z,20.88
2022-10-21T05:25:56.042Z,20.88
2022-10-21T05:28:21.594Z,20.88
2022-10-21T05:30:47.234Z,20.87
2022-10-21T05:33:12.793Z,20.89
2022-10-21T05:35:38.336Z,20.87
2022-10-21T05:38:04.038Z,20.88
2022-10-21T05:40:30.112Z,20.87
2022-10-21T05:42:55.667Z,20.89
2022-10-21T05:45:21.227Z,20.88
2022-10-21T05:47:46.773Z,20.87
2022-10-21T05:50:12.558Z,20.88
2022-10-21T05:52:38.598Z,20.89
2022-10-21T05:55:04.689Z,20.87
2022-10-21T05:57:31.790Z,20.87
2022-10-21T05:59:57.347Z,20.87
2022-10-21T06:02:22.927Z,20.87
2022-10-21T06:04:48.491Z,20.87
2022-10-21T06:07:14.039Z,20.87
2022-10-21T06:09:40.094Z,20.87
2022-10-21T06:12:06.219Z,20.87
2022-10-21T06:14:31.766Z,20.86
2022-10-21T06:16:57.322Z,20.87
2022-10-21T06:19:22.877Z,20.86
2022-10-21T06:21:48.460Z,20.86
2022-10-21T06:24:14.203Z,20.87
2022-10-21T06:26:39.804Z,20.85
2022-10-21T06:29:05.395Z,20.86
2022-10-21T06:31:30.935Z,20.87
2022-10-21T06:33:56.480Z,20.86
2022-10-21T06:36:22.021Z,20.86
2022-10-21T06:38:47.594Z,20.86
2022-10-21T06:41:13.712Z,20.87
2022-10-21T06:43:39.692Z,20.85
2022-10-21T06:46:06.369Z,20.86
2022-10-21T06:48:31.921Z,20.85
2022-10-21T06:50:58.893Z,20.86
2022-10-21T06:53:24.564Z,20.85
2022-10-21T06:55:50.128Z,20.86
2022-10-21T06:58:15.683Z,20.85
2022-10-21T07:00:41.238Z,20.85
2022-10-21T07:03:06.802Z,20.85
2022-10-21T07:05:32.345Z,20.87
2022-10-21T07:07:57.892Z,20.86
2022-10-21T07:10:23.438Z,20.86
2022-10-21T07:12:48.999Z,20.86
2022-10-21T07:15:14.553Z,20.85
2022-10-21T07:17:40.510Z,20.85
2022-10-21T07:20:06.425Z,20.85
2022-10-21T07:22:31.993Z,20.85
2022-10-21T07:24:57.569Z,20.85
2022-10-21T07:27:23.189Z,20.86
2022-10-21T07:29:48.738Z,20.85
2022-10-21T07:32:14.290Z,20.86
2022-10-21T07:34:39.833Z,20.85
2022-10-21T07:37:05.645Z,20.86
2022-10-21T07:39:31.767Z,20.87
2022-10-21T07:41:57.505Z,20.86
2022-10-21T07:44:23.586Z,20.87
2022-10-21T07:46:49.236Z,20.86
2022-10-21T07:49:15.633Z,20.85
2022-10-21T07:51:41.233Z,20.86
2022-10-21T07:54:06.789Z,20.86
2022-10-21T07:56:33.696Z,20.85
2022-10-21T07:59:00.691Z,20.85
2022-10-21T08:01:26.384Z,20.85
2022-10-21T08:03:53.073Z,20.86
2022-10-21T08:06:18.646Z,20.86
2022-10-21T08:08:45.173Z,20.85
2022-10-21T08:11:10.756Z,20.85
2022-10-21T08:13:37.328Z,20.85
2022-10-21T08:16:03.989Z,20.84
2022-10-21T08:18:29.571Z,20.85
2022-10-21T08:20:55.121Z,20.86
2022-10-21T08:23:21.162Z,20.84
2022-10-21T08:25:47.352Z,20.84
2022-10-21T08:28:12.988Z,20.83
2022-10-21T08:30:38.558Z,20.86
2022-10-21T08:33:04.199Z,20.90
2022-10-21T08:35:29.963Z,20.90
2022-10-21T08:37:55.600Z,20.86
2022-10-21T08:40:21.195Z,20.90
2022-10-21T08:42:46.766Z,20.90
2022-10-21T08:45:22.172Z,20.89
2022-10-21T08:47:49.183Z,20.92
2022-10-21T08:50:15.576Z,20.92
2022-10-21T08:52:56.177Z,20.92
2022-10-21T08:55:23.345Z,20.88
2022-10-21T08:57:49.261Z,20.91
2022-10-21T09:00:16.499Z,20.93
2022-10-21T09:03:00.168Z,20.92
2022-10-21T09:05:32.397Z,20.93
2022-10-21T09:08:00.402Z,20.94
2022-10-21T09:10:45.917Z,20.93
2022-10-21T09:13:12.441Z,20.95
2022-10-21T09:15:57.874Z,20.94
2022-10-21T09:18:34.344Z,20.95
2022-10-21T09:21:05.903Z,20.66
2022-10-21T09:23:42.342Z,20.70
2022-10-21T09:26:13.479Z,20.85
2022-10-21T09:28:39.031Z,20.92
2022-10-21T09:31:08.857Z,20.93
2022-10-21T09:33:34.416Z,20.94
2022-10-21T09:36:02.308Z,20.96
2022-10-21T09:38:30.394Z,20.99
2022-10-21T09:41:02.183Z,21.00
2022-10-21T09:43:27.807Z,21.01
2022-10-21T09:45:53.349Z,20.99
2022-10-21T09:48:21.629Z,21.00
2022-10-21T09:50:55.788Z,21.00
2022-10-21T09:53:25.542Z,21.01
2022-10-21T09:55:55.335Z,21.03
2022-10-21T09:58:25.048Z,21.03
2022-10-21T10:00:50.600Z,21.03
2022-10-21T10:03:36.055Z,21.02
2022-10-21T10:06:01.877Z,21.03
2022-10-21T10:08:43.656Z,21.03
2022-10-21T10:13:44.859Z,21.03
2022-10-21T10:16:13.839Z,21.05
2022-10-21T10:18:39.731Z,21.03
2022-10-21T10:21:06.148Z,21.04
2022-10-21T10:23:40.525Z,21.04
2022-10-21T10:26:06.067Z,21.04
2022-10-21T10:28:31.716Z,21.04
2022-10-21T10:30:57.309Z,21.06
2022-10-21T10:33:24.143Z,21.07
2022-10-21T10:35:51.110Z,21.05
2022-10-21T10:38:18.425Z,21.07
2022-10-21T10:40:43.981Z,21.07
2022-10-21T10:43:14.391Z,21.08
2022-10-21T10:45:46.178Z,21.08
2022-10-21T10:48:15.605Z,21.09
2022-10-21T10:50:42.169Z,21.09
2022-10-21T10:53:09.684Z,21.10
2022-10-21T10:55:35.242Z,21.10
2022-10-21T10:58:10.768Z,21.09
2022-10-21T11:00:39.918Z,21.08
2022-10-21T11:03:07.080Z,21.09
2022-10-21T11:05:35.510Z,21.08
2022-10-21T11:08:03.807Z,21.09
2022-10-21T11:10:36.892Z,21.09
2022-10-21T11:13:03.816Z,21.08
2022-10-21T11:15:49.269Z,21.08
2022-10-21T11:18:25.140Z,21.09
2022-10-21T11:21:10.809Z,21.09
2022-10-21T11:23:57.836Z,21.08
2022-10-21T11:26:27.841Z,21.08
2022-10-21T11:29:13.260Z,21.07
2022-10-21T11:31:53.881Z,21.09
2022-10-21T11:34:30.889Z,21.08
2022-10-21T11:37:07.279Z,21.07
2022-10-21T11:39:36.155Z,21.08
2022-10-21T11:42:07.598Z,21.08
2022-10-21T11:44:41.719Z,21.07
2022-10-21T11:47:14.498Z,21.07
2022-10-21T11:49:59.963Z,21.07
2022-10-21T11:52:45.393Z,21.07
2022-10-21T11:55:16.285Z,21.07
2022-10-21T11:58:03.601Z,21.08
2022-10-21T12:00:30.207Z,21.07
2022-10-21T12:03:15.641Z,21.07
2022-10-21T12:05:45.454Z,21.05
2022-10-21T12:08:19.776Z,21.07
2022-10-21T12:10:46.959Z,21.08
2022-10-21T12:13:14.859Z,21.06
2022-10-21T12:15:41.339Z,21.05
2022-10-21T12:18:10.654Z,21.06
2022-10-21T12:20:36.207Z,21.07
2022-10-21T12:23:02.735Z,21.07
2022-10-21T12:25:48.182Z,21.07
2022-10-21T12:28:16.479Z,21.07
2022-10-21T12:30:46.276Z,21.07
2022-10-21T12:33:31.699Z,21.06
2022-10-21T12:36:17.632Z,21.05
2022-10-21T12:38:45.467Z,21.07
2022-10-21T12:41:33.322Z,21.04
2022-10-21T12:44:02.705Z,21.05
2022-10-21T12:46:30.690Z,21.05
2022-10-21T12:48:56.814Z,21.04
2022-10-21T12:51:24.087Z,21.05
2022-10-21T12:56:31.804Z,21.05
2022-10-21T12:59:01.069Z,21.04
2022-10-21T13:01:43.366Z,21.05
2022-10-21T13:04:29.341Z,21.04
2022-10-21T13:06:56.185Z,21.05
2022-10-21T13:09:38.598Z,21.04
2022-10-21T13:14:58.413Z,21.04
2022-10-21T13:17:28.932Z,21.04
2022-10-21T13:19:55.721Z,21.04
2022-10-21T13:22:22.637Z,21.04
2022-10-21T13:24:48.635Z,21.04
2022-10-21T13:27:29.900Z,21.05
2022-10-21T13:29:55.748Z,21.05
2022-10-21T13:32:22.896Z,21.04
2022-10-21T13:35:08.505Z,21.04
2022-10-21T13:37:35.372Z,21.04
2022-10-21T13:40:03.566Z,21.04
2022-10-21T13:42:31.722Z,21.04
2022-10-21T13:44:59.473Z,21.01
2022-10-21T13:47:27.536Z,21.05
2022-10-21T13:49:54.051Z,21.07
2022-10-21T13:52:19.621Z,21.06
2022-10-21T13:54:45.194Z,21.06
2022-10-21T13:57:15.248Z,21.06
2022-10-21T13:59:40.792Z,21.07
2022-10-21T14:02:06.344Z,21.08
2022-10-21T14:04:32.397Z,21.08
2022-10-21T14:07:00.097Z,21.07
2022-10-21T14:09:27.335Z,21.08
2022-10-21T14:11:56.031Z,21.09
2022-10-21T14:14:22.360Z,21.08
2022-10-21T14:16:49.086Z,21.09
2022-10-21T14:19:16.619Z,21.10
2022-10-21T14:21:43.320Z,21.10
2022-10-21T14:24:19.953Z,21.11
2022-10-21T14:26:45.792Z,21.11
2022-10-21T14:29:11.342Z,21.11
2022-10-21T14:31:36.904Z,21.12
2022-10-21T14:34:06.353Z,21.11
2022-10-21T14:36:31.910Z,21.11
2022-10-21T14:38:59.733Z,21.12
2022-10-21T14:41:43.619Z,21.12
2022-10-21T14:44:13.711Z,21.13
2022-10-21T14:46:41.249Z,21.13
2022-10-21T14:49:13.519Z,21.13
2022-10-21T14:51:40.030Z,21.13
2022-10-21T14:54:06.551Z,21.13
2022-10-21T14:56:33.650Z,21.13
2022-10-21T14:58:59.779Z,21.13
2022-10-21T15:01:25.360Z,21.13
2022-10-21T15:03:53.708Z,21.12
2022-10-21T15:06:21.636Z,21.12
2022-10-21T15:09:07.149Z,21.13
2022-10-21T15:11:34.255Z,21.12
2022-10-21T15:14:16.044Z,21.12
2022-10-21T15:16:57.834Z,21.12
2022-10-21T15:19:24.498Z,21.12
2022-10-21T15:21:51.443Z,21.12
2022-10-21T15:24:17.889Z,21.12
2022-10-21T15:26:44.552Z,21.12
2022-10-21T15:29:12.383Z,21.11
2022-10-21T15:31:37.951Z,21.12
2022-10-21T15:34:04.587Z,21.12
2022-10-21T15:36:30.140Z,21.12
2022-10-21T15:38:55.683Z,21.12
2022-10-21T15:41:23.176Z,21.12
2022-10-21T15:43:51.486Z,21.11
2022-10-21T15:46:17.045Z,21.12
2022-10-21T15:48:42.616Z,21.12
2022-10-21T15:51:08.171Z,21.12
2022-10-21T15:53:33.709Z,21.11
2022-10-21T15:55:59.659Z,21.11
2022-10-21T15:58:25.199Z,21.12
2022-10-21T16:00:50.843Z,21.11
2022-10-21T16:03:17.088Z,21.11
2022-10-21T16:05:42.855Z,21.11
2022-10-21T16:08:10.716Z,21.11
2022-10-21T16:10:36.484Z,21.10
2022-10-21T16:13:02.034Z,21.11
2022-10-21T16:15:27.699Z,21.10
2022-10-21T16:17:54.185Z,21.10
2022-10-21T16:20:21.156Z,21.10
2022-10-21T16:22:46.728Z,21.11
2022-10-21T16:25:13.204Z,21.10
2022-10-21T16:27:51.213Z,21.09
2022-10-21T16:30:24.583Z,21.10
2022-10-21T16:32:50.528Z,21.10
2022-10-21T16:35:16.632Z,21.10
2022-10-21T16:37:42.388Z,21.10
2022-10-21T16:40:24.446Z,21.10
2022-10-21T16:42:50.352Z,21.09
2022-10-21T16:45:16.874Z,21.08
2022-10-21T16:47:47.254Z,21.09
2022-10-21T16:50:16.945Z,21.08
2022-10-21T16:52:42.818Z,21.08
2022-10-21T16:55:08.724Z,21.09
2022-10-21T16:57:34.273Z,21.09
2022-10-21T16:59:59.816Z,21.09
2022-10-21T17:02:25.372Z,21.09
2022-10-21T17:04:50.911Z,21.08
2022-10-21T17:07:16.515Z,21.08
2022-10-21T17:09:42.060Z,21.09
2022-10-21T17:12:09.339Z,21.08
2022-10-21T17:17:05.412Z,21.08
2022-10-21T17:19:30.952Z,21.07
2022-10-21T17:21:56.511Z,21.09
2022-10-21T17:24:22.059Z,21.08
2022-10-21T17:26:47.612Z,21.07
2022-10-21T17:29:13.150Z,21.08
2022-10-21T17:31:39.616Z,21.07
2022-10-21T17:34:06.680Z,21.08
2022-10-21T17:36:32.769Z,21.07
2022-10-21T17:38:58.300Z,21.07
2022-10-21T17:41:23.849Z,21.07
2022-10-21T17:43:49.391Z,21.08
2022-10-21T17:46:16.568Z,21.06
2022-10-21T17:48:42.107Z,21.06
2022-10-21T17:51:07.916Z,21.06
2022-10-21T17:53:33.456Z,21.07
2022-10-21T17:55:59.578Z,21.06
2022-10-21T17:58:25.321Z,21.05
2022-10-21T18:00:50.928Z,21.07
2022-10-21T18:03:17.434Z,21.05
2022-10-21T18:05:44.500Z,21.06
2022-10-21T18:08:10.045Z,21.07
2022-10-21T18:10:35.588Z,21.05
2022-10-21T18:13:01.141Z,21.07
2022-10-21T18:15:27.496Z,21.05
2022-10-21T18:17:53.381Z,21.05
2022-10-21T18:20:18.988Z,21.07
2022-10-21T18:22:44.808Z,21.04
2022-10-21T18:25:10.386Z,21.05
2022-10-21T18:27:35.977Z,21.04
2022-10-21T18:30:03.892Z,21.05
2022-10-21T18:32:29.457Z,21.04
2022-10-21T18:34:54.995Z,21.05
2022-10-21T18:37:20.545Z,21.05
2022-10-21T18:39:46.104Z,21.05
2022-10-21T18:42:11.652Z,21.04
2022-10-21T18:44:37.371Z,21.04
2022-10-21T18:47:02.920Z,21.03
2022-10-21T18:49:28.487Z,21.03
2022-10-21T18:51:54.465Z,21.04
2022-10-21T18:54:20.056Z,21.03
2022-10-21T18:56:45.599Z,21.04
2022-10-21T18:59:11.632Z,21.04
2022-10-21T19:01:37.254Z,21.03
2022-10-21T19:04:02.939Z,21.03
2022-10-21T19:06:31.144Z,21.03
2022-10-21T19:08:56.814Z,21.04
2022-10-21T19:11:22.408Z,21.04
2022-10-21T19:13:47.956Z,21.02
2022-10-21T19:16:13.558Z,21.02
2022-10-21T19:18:39.124Z,21.02
2022-10-21T19:21:04.850Z,21.02
2022-10-21T19:23:31.619Z,21.02
2022-10-21T19:26:01.300Z,21.02
2022-10-21T19:28:26.847Z,21.03
2022-10-21T19:30:52.406Z,21.02
2022-10-21T19:33:17.953Z,21.01
2022-10-21T19:35:43.514Z,21.01
2022-10-21T19:38:15.498Z,21.02
2022-10-21T19:40:46.306Z,21.02
2022-10-21T19:43:11.873Z,21.02
2022-10-21T19:45:37.416Z,21.02
2022-10-21T19:48:03.004Z,21.01
2022-10-21T19:50:28.636Z,21.01
2022-10-21T19:52:54.318Z,21.02
2022-10-21T19:55:19.862Z,21.02
2022-10-21T19:57:45.472Z,21.01
2022-10-21T20:00:11.319Z,21.02
2022-10-21T20:02:37.207Z,21.01
2022-10-21T20:05:02.904Z,21.01
2022-10-21T20:07:28.452Z,21.01
2022-10-21T20:09:53.989Z,21.01
2022-10-21T20:12:19.852Z,21.00
2022-10-21T20:14:45.399Z,21.01
2022-10-21T20:17:12.341Z,21.01
2022-10-21T20:19:40.476Z,21.00
2022-10-21T20:22:06.034Z,21.01
2022-10-21T20:24:31.563Z,21.00
2022-10-21T20:26:59.791Z,21.00
2022-10-21T20:29:27.667Z,21.00
2022-10-21T20:31:53.217Z,21.00
2022-10-21T20:34:18.760Z,21.00
2022-10-21T20:36:44.312Z,21.00
2022-10-21T20:39:09.848Z,21.00
2022-10-21T20:41:36.506Z,21.00
2022-10-21T20:44:03.462Z,21.00
2022-10-21T20:46:33.928Z,20.99
2022-10-21T20:48:59.563Z,21.00
2022-10-21T20:51:26.047Z,21.00
2022-10-21T20:53:52.345Z,20.99
2022-10-21T20:56:18.407Z,20.99
2022-10-21T20:58:43.946Z,20.99
2022-10-21T21:01:11.334Z,20.98
2022-10-21T21:03:38.445Z,20.99
2022-10-21T21:06:04.471Z,20.98
2022-10-21T21:08:32.053Z,20.99
2022-10-21T21:10:59.256Z,20.99
2022-10-21T21:13:24.795Z,20.99
2022-10-21T21:15:50.350Z,20.99
2022-10-21T21:18:15.889Z,20.99
2022-10-21T21:20:41.441Z,20.99
2022-10-21T21:23:06.996Z,20.99
2022-10-21T21:25:32.539Z,20.98
2022-10-21T21:27:58.096Z,20.98
2022-10-21T21:30:23.640Z,20.98
2022-10-21T21:32:49.196Z,20.98
2022-10-21T21:35:14.733Z,20.98
2022-10-21T21:37:40.286Z,20.99
2022-10-21T21:40:06.183Z,20.98
2022-10-21T21:42:31.816Z,20.98
2022-10-21T21:44:57.351Z,20.98
2022-10-21T21:47:22.896Z,20.98
2022-10-21T21:49:48.442Z,20.98
2022-10-21T21:52:14.171Z,20.98
2022-10-21T21:54:39.710Z,20.98
2022-10-21T21:59:50.777Z,20.97
2022-10-21T22:02:16.327Z,20.98
2022-10-21T22:04:41.885Z,20.97
2022-10-21T22:07:07.435Z,20.97
2022-10-21T22:09:32.979Z,20.97
2022-10-21T22:11:58.536Z,20.97
2022-10-21T22:14:24.083Z,20.97
2022-10-21T22:16:49.643Z,20.97
2022-10-21T22:19:15.186Z,20.98
2022-10-21T22:21:40.770Z,20.98
2022-10-21T22:24:06.308Z,20.96
2022-10-21T22:26:31.856Z,20.97
2022-10-21T22:28:57.480Z,20.96
2022-10-21T22:31:28.916Z,20.96
2022-10-21T22:33:56.309Z,20.96
2022-10-21T22:36:21.864Z,20.98
2022-10-21T22:38:47.405Z,20.97
2022-10-21T22:41:13.219Z,20.96
2022-10-21T22:43:38.800Z,20.97
2022-10-21T22:48:49.975Z,20.96
2022-10-21T22:51:15.839Z,20.96
2022-10-21T22:53:41.662Z,20.96
2022-10-21T22:56:07.412Z,20.95
2022-10-21T22:58:32.959Z,20.96
2022-10-21T23:00:58.660Z,20.96
2022-10-21T23:03:24.228Z,20.95
2022-10-21T23:05:49.772Z,20.95
2022-10-21T23:08:16.174Z,20.96
2022-10-21T23:10:41.739Z,20.95
2022-10-21T23:13:07.284Z,20.95
2022-10-21T23:15:33.249Z,20.95
2022-10-21T23:17:58.803Z,20.96
2022-10-21T23:20:24.347Z,20.95
2022-10-21T23:22:49.912Z,20.96
2022-10-21T23:25:15.581Z,20.96
2022-10-21T23:27:41.140Z,20.95
2022-10-21T23:30:06.875Z,20.95
2022-10-21T23:32:32.428Z,20.96
2022-10-21T23:34:57.971Z,20.96
2022-10-21T23:37:23.555Z,20.96
2022-10-21T23:39:49.094Z,20.95
2022-10-21T23:42:14.651Z,20.95
2022-10-21T23:44:40.193Z,20.95
2022-10-21T23:47:05.751Z,20.95
2022-10-21T23:49:31.295Z,20.94
2022-10-21T23:51:57.581Z,20.95
2022-10-21T23:54:23.398Z,20.95
2022-10-21T23:56:48.951Z,20.95
2022-10-21T23:59:14.497Z,20.95
